sensor_id;sensor_type;location;lat;lon;timestamp;P1;durP1;ratioP1;P2;durP2;ratioP2
18176;SDS011;9213;50.858;3.964;2023-08-30T00:02:18;7.33;;;6.20;;
18176;SDS011;9213;50.858;3.964;2023-08-30T00:04:45;7.50;;;6.33;;
18176;SDS011;9213;50.858;3.964;2023-08-30T00:07:12;9.47;;;6.30;;
18176;SDS011;9213;50.858;3.964;2023-08-30T00:09:39;7.90;;;5.90;;
18176;SDS011;9213;50.858;3.964;2023-08-30T00:12:06;7.93;;;6.13;;
18176;SDS011;9213;50.858;3.964;2023-08-30T00:14:34;10.27;;;5.80;;
18176;SDS011;9213;50.858;3.964;2023-08-30T00:17:01;8.67;;;5.73;;
18176;SDS011;9213;50.858;3.964;2023-08-30T00:19:28;8.10;;;6.17;;
18176;SDS011;9213;50.858;3.964;2023-08-30T00:21:55;9.20;;;6.00;;
18176;SDS011;9213;50.858;3.964;2023-08-30T00:24:23;7.40;;;6.27;;
18176;SDS011;9213;50.858;3.964;2023-08-30T00:26:50;9.00;;;5.83;;
18176;SDS011;9213;50.858;3.964;2023-08-30T00:29:17;7.50;;;6.17;;
18176;SDS011;9213;50.858;3.964;2023-08-30T00:31:45;8.30;;;5.70;;
18176;SDS011;9213;50.858;3.964;2023-08-30T00:34:12;7.23;;;6.10;;
18176;SDS011;9213;50.858;3.964;2023-08-30T00:36:39;9.90;;;6.20;;
18176;SDS011;9213;50.858;3.964;2023-08-30T00:39:05;10.83;;;5.93;;
18176;SDS011;9213;50.858;3.964;2023-08-30T00:41:33;7.10;;;6.00;;
18176;SDS011;9213;50.858;3.964;2023-08-30T00:44:00;10.60;;;6.43;;
18176;SDS011;9213;50.858;3.964;2023-08-30T00:46:28;7.60;;;6.23;;
18176;SDS011;9213;50.858;3.964;2023-08-30T00:48:56;10.07;;;6.20;;
18176;SDS011;9213;50.858;3.964;2023-08-30T00:51:24;6.90;;;6.03;;
18176;SDS011;9213;50.858;3.964;2023-08-30T00:53:51;7.77;;;6.17;;
18176;SDS011;9213;50.858;3.964;2023-08-30T00:56:20;11.77;;;6.30;;
18176;SDS011;9213;50.858;3.964;2023-08-30T00:58:48;7.73;;;6.03;;
18176;SDS011;9213;50.858;3.964;2023-08-30T01:01:15;8.67;;;6.57;;
18176;SDS011;9213;50.858;3.964;2023-08-30T01:03:41;8.73;;;6.50;;
18176;SDS011;9213;50.858;3.964;2023-08-30T01:06:09;6.73;;;6.03;;
18176;SDS011;9213;50.858;3.964;2023-08-30T01:08:38;10.57;;;6.73;;
18176;SDS011;9213;50.858;3.964;2023-08-30T01:11:07;8.33;;;6.70;;
18176;SDS011;9213;50.858;3.964;2023-08-30T01:13:40;8.67;;;6.27;;
18176;SDS011;9213;50.858;3.964;2023-08-30T01:16:11;9.73;;;7.13;;
18176;SDS011;9213;50.858;3.964;2023-08-30T01:18:38;8.83;;;6.93;;
18176;SDS011;9213;50.858;3.964;2023-08-30T01:21:08;9.23;;;6.67;;
18176;SDS011;9213;50.858;3.964;2023-08-30T01:23:46;11.40;;;7.47;;
18176;SDS011;9213;50.858;3.964;2023-08-30T01:26:20;7.70;;;6.90;;
18176;SDS011;9213;50.858;3.964;2023-08-30T01:28:56;9.57;;;7.30;;
18176;SDS011;9213;50.858;3.964;2023-08-30T01:31:26;9.17;;;7.37;;
18176;SDS011;9213;50.858;3.964;2023-08-30T01:33:55;9.47;;;7.60;;
18176;SDS011;9213;50.858;3.964;2023-08-30T01:36:22;12.83;;;7.90;;
18176;SDS011;9213;50.858;3.964;2023-08-30T01:38:50;11.13;;;7.73;;
18176;SDS011;9213;50.858;3.964;2023-08-30T01:41:17;8.10;;;7.30;;
18176;SDS011;9213;50.858;3.964;2023-08-30T01:43:45;11.40;;;7.60;;
18176;SDS011;9213;50.858;3.964;2023-08-30T01:46:15;9.40;;;6.90;;
18176;SDS011;9213;50.858;3.964;2023-08-30T01:48:44;9.77;;;7.10;;
18176;SDS011;9213;50.858;3.964;2023-08-30T01:51:12;8.97;;;7.63;;
18176;SDS011;9213;50.858;3.964;2023-08-30T01:53:40;10.33;;;7.70;;
18176;SDS011;9213;50.858;3.964;2023-08-30T01:56:07;10.77;;;7.00;;
18176;SDS011;9213;50.858;3.964;2023-08-30T01:58:34;10.70;;;7.07;;
18176;SDS011;9213;50.858;3.964;2023-08-30T02:01:01;11.17;;;7.50;;
18176;SDS011;9213;50.858;3.964;2023-08-30T02:03:29;10.07;;;7.50;;
18176;SDS011;9213;50.858;3.964;2023-08-30T02:05:58;8.77;;;7.53;;
18176;SDS011;9213;50.858;3.964;2023-08-30T02:08:32;11.03;;;7.53;;
18176;SDS011;9213;50.858;3.964;2023-08-30T02:11:04;9.70;;;7.67;;
18176;SDS011;9213;50.858;3.964;2023-08-30T02:13:37;10.67;;;7.50;;
18176;SDS011;9213;50.858;3.964;2023-08-30T02:16:05;10.83;;;7.90;;
18176;SDS011;9213;50.858;3.964;2023-08-30T02:18:35;9.77;;;7.97;;
18176;SDS011;9213;50.858;3.964;2023-08-30T02:21:03;11.43;;;8.13;;
18176;SDS011;9213;50.858;3.964;2023-08-30T02:23:30;11.57;;;7.63;;
18176;SDS011;9213;50.858;3.964;2023-08-30T02:25:57;10.80;;;7.60;;
18176;SDS011;9213;50.858;3.964;2023-08-30T02:28:25;9.27;;;7.50;;
18176;SDS011;9213;50.858;3.964;2023-08-30T02:30:52;8.37;;;7.50;;
18176;SDS011;9213;50.858;3.964;2023-08-30T02:33:20;10.07;;;7.70;;
18176;SDS011;9213;50.858;3.964;2023-08-30T02:35:48;9.10;;;7.30;;
18176;SDS011;9213;50.858;3.964;2023-08-30T02:38:15;9.87;;;7.27;;
18176;SDS011;9213;50.858;3.964;2023-08-30T02:40:42;9.77;;;8.00;;
18176;SDS011;9213;50.858;3.964;2023-08-30T02:43:09;12.20;;;7.67;;
18176;SDS011;9213;50.858;3.964;2023-08-30T02:45:36;8.30;;;7.43;;
18176;SDS011;9213;50.858;3.964;2023-08-30T02:48:03;10.60;;;8.20;;
18176;SDS011;9213;50.858;3.964;2023-08-30T02:50:31;11.77;;;7.57;;
18176;SDS011;9213;50.858;3.964;2023-08-30T02:52:59;10.83;;;7.73;;
18176;SDS011;9213;50.858;3.964;2023-08-30T02:55:26;14.70;;;8.40;;
18176;SDS011;9213;50.858;3.964;2023-08-30T02:57:53;11.20;;;7.80;;
18176;SDS011;9213;50.858;3.964;2023-08-30T03:00:20;12.53;;;7.73;;
18176;SDS011;9213;50.858;3.964;2023-08-30T03:02:47;8.50;;;7.10;;
18176;SDS011;9213;50.858;3.964;2023-08-30T03:05:14;9.57;;;7.17;;
18176;SDS011;9213;50.858;3.964;2023-08-30T03:07:41;11.23;;;7.43;;
18176;SDS011;9213;50.858;3.964;2023-08-30T03:10:11;10.07;;;8.27;;
18176;SDS011;9213;50.858;3.964;2023-08-30T03:12:38;10.33;;;7.90;;
18176;SDS011;9213;50.858;3.964;2023-08-30T03:15:05;9.63;;;7.60;;
18176;SDS011;9213;50.858;3.964;2023-08-30T03:17:33;9.37;;;7.30;;
18176;SDS011;9213;50.858;3.964;2023-08-30T03:20:01;9.37;;;7.30;;
18176;SDS011;9213;50.858;3.964;2023-08-30T03:22:29;12.50;;;7.57;;
18176;SDS011;9213;50.858;3.964;2023-08-30T03:24:57;11.73;;;8.67;;
18176;SDS011;9213;50.858;3.964;2023-08-30T03:27:25;9.73;;;7.93;;
18176;SDS011;9213;50.858;3.964;2023-08-30T03:29:52;12.77;;;8.00;;
18176;SDS011;9213;50.858;3.964;2023-08-30T03:32:21;10.83;;;7.40;;
18176;SDS011;9213;50.858;3.964;2023-08-30T03:34:48;8.70;;;6.90;;
18176;SDS011;9213;50.858;3.964;2023-08-30T03:37:15;10.10;;;7.17;;
18176;SDS011;9213;50.858;3.964;2023-08-30T03:39:42;10.70;;;7.33;;
18176;SDS011;9213;50.858;3.964;2023-08-30T03:42:09;9.43;;;7.10;;
18176;SDS011;9213;50.858;3.964;2023-08-30T03:44:38;11.83;;;7.63;;
18176;SDS011;9213;50.858;3.964;2023-08-30T03:47:05;10.10;;;7.07;;
18176;SDS011;9213;50.858;3.964;2023-08-30T03:49:32;13.10;;;7.57;;
18176;SDS011;9213;50.858;3.964;2023-08-30T03:51:59;9.50;;;7.07;;
18176;SDS011;9213;50.858;3.964;2023-08-30T03:54:26;9.70;;;7.10;;
18176;SDS011;9213;50.858;3.964;2023-08-30T03:56:53;10.77;;;7.03;;
18176;SDS011;9213;50.858;3.964;2023-08-30T03:59:20;10.57;;;7.10;;
18176;SDS011;9213;50.858;3.964;2023-08-30T04:01:50;15.43;;;7.43;;
18176;SDS011;9213;50.858;3.964;2023-08-30T04:04:17;9.60;;;7.20;;
18176;SDS011;9213;50.858;3.964;2023-08-30T04:06:44;13.10;;;7.40;;
18176;SDS011;9213;50.858;3.964;2023-08-30T04:09:11;11.67;;;7.47;;
18176;SDS011;9213;50.858;3.964;2023-08-30T04:11:37;12.93;;;7.33;;
18176;SDS011;9213;50.858;3.964;2023-08-30T04:14:04;10.00;;;7.20;;
18176;SDS011;9213;50.858;3.964;2023-08-30T04:16:31;11.93;;;7.57;;
18176;SDS011;9213;50.858;3.964;2023-08-30T04:19:00;9.70;;;7.33;;
18176;SDS011;9213;50.858;3.964;2023-08-30T04:21:26;11.17;;;7.40;;
18176;SDS011;9213;50.858;3.964;2023-08-30T04:23:53;10.37;;;7.37;;
18176;SDS011;9213;50.858;3.964;2023-08-30T04:26:20;9.40;;;7.53;;
18176;SDS011;9213;50.858;3.964;2023-08-30T04:28:47;10.30;;;7.03;;
18176;SDS011;9213;50.858;3.964;2023-08-30T04:31:14;9.67;;;7.40;;
18176;SDS011;9213;50.858;3.964;2023-08-30T04:33:41;13.10;;;7.80;;
18176;SDS011;9213;50.858;3.964;2023-08-30T04:36:09;10.57;;;8.03;;
18176;SDS011;9213;50.858;3.964;2023-08-30T04:38:36;11.13;;;8.07;;
18176;SDS011;9213;50.858;3.964;2023-08-30T04:41:03;12.13;;;7.43;;
18176;SDS011;9213;50.858;3.964;2023-08-30T04:43:30;9.90;;;7.73;;
18176;SDS011;9213;50.858;3.964;2023-08-30T04:45:57;11.30;;;8.00;;
18176;SDS011;9213;50.858;3.964;2023-08-30T04:48:24;11.23;;;8.27;;
18176;SDS011;9213;50.858;3.964;2023-08-30T04:50:57;11.27;;;8.93;;
18176;SDS011;9213;50.858;3.964;2023-08-30T04:53:26;11.23;;;8.43;;
18176;SDS011;9213;50.858;3.964;2023-08-30T04:55:53;10.90;;;8.13;;
18176;SDS011;9213;50.858;3.964;2023-08-30T04:58:20;10.70;;;8.03;;
18176;SDS011;9213;50.858;3.964;2023-08-30T05:00:47;10.70;;;8.17;;
18176;SDS011;9213;50.858;3.964;2023-08-30T05:03:14;9.67;;;7.77;;
18176;SDS011;9213;50.858;3.964;2023-08-30T05:05:44;9.40;;;7.77;;
18176;SDS011;9213;50.858;3.964;2023-08-30T05:08:11;8.87;;;7.60;;
18176;SDS011;9213;50.858;3.964;2023-08-30T05:10:40;8.33;;;7.23;;
18176;SDS011;9213;50.858;3.964;2023-08-30T05:13:08;10.60;;;8.27;;
18176;SDS011;9213;50.858;3.964;2023-08-30T05:15:35;14.00;;;8.37;;
18176;SDS011;9213;50.858;3.964;2023-08-30T05:18:03;10.37;;;8.10;;
18176;SDS011;9213;50.858;3.964;2023-08-30T05:20:30;12.20;;;7.97;;
18176;SDS011;9213;50.858;3.964;2023-08-30T05:22:57;10.63;;;8.40;;
18176;SDS011;9213;50.858;3.964;2023-08-30T05:25:24;10.10;;;8.93;;
18176;SDS011;9213;50.858;3.964;2023-08-30T05:27:53;10.97;;;8.60;;
18176;SDS011;9213;50.858;3.964;2023-08-30T05:30:20;11.90;;;9.00;;
18176;SDS011;9213;50.858;3.964;2023-08-30T05:32:47;11.10;;;9.50;;
18176;SDS011;9213;50.858;3.964;2023-08-30T05:35:14;11.47;;;9.33;;
18176;SDS011;9213;50.858;3.964;2023-08-30T05:37:41;11.43;;;8.97;;
18176;SDS011;9213;50.858;3.964;2023-08-30T05:40:08;11.07;;;9.73;;
18176;SDS011;9213;50.858;3.964;2023-08-30T05:42:36;12.40;;;9.40;;
18176;SDS011;9213;50.858;3.964;2023-08-30T05:45:04;15.47;;;9.23;;
18176;SDS011;9213;50.858;3.964;2023-08-30T05:47:32;14.03;;;10.50;;
18176;SDS011;9213;50.858;3.964;2023-08-30T05:49:59;15.53;;;11.33;;
18176;SDS011;9213;50.858;3.964;2023-08-30T05:52:26;15.70;;;10.53;;
18176;SDS011;9213;50.858;3.964;2023-08-30T05:54:53;14.97;;;10.37;;
18176;SDS011;9213;50.858;3.964;2023-08-30T05:57:20;16.73;;;10.83;;
18176;SDS011;9213;50.858;3.964;2023-08-30T05:59:48;14.07;;;9.90;;
18176;SDS011;9213;50.858;3.964;2023-08-30T06:02:16;16.70;;;11.10;;
18176;SDS011;9213;50.858;3.964;2023-08-30T06:04:43;15.53;;;10.37;;
18176;SDS011;9213;50.858;3.964;2023-08-30T06:07:10;15.40;;;10.70;;
18176;SDS011;9213;50.858;3.964;2023-08-30T06:09:36;17.67;;;10.07;;
18176;SDS011;9213;50.858;3.964;2023-08-30T06:12:04;14.97;;;10.63;;
18176;SDS011;9213;50.858;3.964;2023-08-30T06:14:31;18.13;;;10.80;;
18176;SDS011;9213;50.858;3.964;2023-08-30T06:16:58;17.20;;;10.87;;
18176;SDS011;9213;50.858;3.964;2023-08-30T06:19:26;17.63;;;10.90;;
18176;SDS011;9213;50.858;3.964;2023-08-30T06:21:53;16.03;;;9.83;;
18176;SDS011;9213;50.858;3.964;2023-08-30T06:24:21;15.63;;;11.07;;
18176;SDS011;9213;50.858;3.964;2023-08-30T06:26:48;17.03;;;10.97;;
18176;SDS011;9213;50.858;3.964;2023-08-30T06:29:15;13.07;;;9.43;;
18176;SDS011;9213;50.858;3.964;2023-08-30T06:31:42;16.53;;;9.97;;
18176;SDS011;9213;50.858;3.964;2023-08-30T06:34:10;18.77;;;10.87;;
18176;SDS011;9213;50.858;3.964;2023-08-30T06:36:38;15.33;;;10.40;;
18176;SDS011;9213;50.858;3.964;2023-08-30T06:39:05;15.67;;;10.03;;
18176;SDS011;9213;50.858;3.964;2023-08-30T06:41:32;17.07;;;10.53;;
18176;SDS011;9213;50.858;3.964;2023-08-30T06:43:59;14.60;;;9.90;;
18176;SDS011;9213;50.858;3.964;2023-08-30T06:46:26;15.67;;;10.17;;
18176;SDS011;9213;50.858;3.964;2023-08-30T06:48:53;15.27;;;9.53;;
18176;SDS011;9213;50.858;3.964;2023-08-30T06:51:20;16.20;;;10.40;;
18176;SDS011;9213;50.858;3.964;2023-08-30T06:53:48;15.23;;;10.03;;
18176;SDS011;9213;50.858;3.964;2023-08-30T06:56:16;14.00;;;9.67;;
18176;SDS011;9213;50.858;3.964;2023-08-30T06:58:43;14.70;;;9.40;;
18176;SDS011;9213;50.858;3.964;2023-08-30T07:01:10;16.37;;;10.37;;
18176;SDS011;9213;50.858;3.964;2023-08-30T07:03:37;13.70;;;9.60;;
18176;SDS011;9213;50.858;3.964;2023-08-30T07:06:05;17.40;;;10.17;;
18176;SDS011;9213;50.858;3.964;2023-08-30T07:08:32;14.03;;;9.53;;
18176;SDS011;9213;50.858;3.964;2023-08-30T07:11:00;14.40;;;10.50;;
18176;SDS011;9213;50.858;3.964;2023-08-30T07:13:27;12.37;;;9.83;;
18176;SDS011;9213;50.858;3.964;2023-08-30T07:15:54;14.00;;;9.87;;
18176;SDS011;9213;50.858;3.964;2023-08-30T07:18:21;16.23;;;9.73;;
18176;SDS011;9213;50.858;3.964;2023-08-30T07:20:48;14.63;;;10.20;;
18176;SDS011;9213;50.858;3.964;2023-08-30T07:23:15;13.57;;;9.87;;
18176;SDS011;9213;50.858;3.964;2023-08-30T07:25:42;11.90;;;9.33;;
18176;SDS011;9213;50.858;3.964;2023-08-30T07:28:10;14.57;;;9.77;;
18176;SDS011;9213;50.858;3.964;2023-08-30T07:30:37;14.33;;;9.93;;
18176;SDS011;9213;50.858;3.964;2023-08-30T07:33:04;16.17;;;10.23;;
18176;SDS011;9213;50.858;3.964;2023-08-30T07:35:31;13.90;;;10.53;;
18176;SDS011;9213;50.858;3.964;2023-08-30T07:37:58;16.40;;;10.60;;
18176;SDS011;9213;50.858;3.964;2023-08-30T07:40:25;14.90;;;10.80;;
18176;SDS011;9213;50.858;3.964;2023-08-30T07:42:54;13.93;;;10.57;;
18176;SDS011;9213;50.858;3.964;2023-08-30T07:45:22;15.00;;;10.33;;
18176;SDS011;9213;50.858;3.964;2023-08-30T07:47:49;16.03;;;10.47;;
18176;SDS011;9213;50.858;3.964;2023-08-30T07:50:16;16.43;;;11.33;;
18176;SDS011;9213;50.858;3.964;2023-08-30T07:52:43;15.30;;;10.80;;
18176;SDS011;9213;50.858;3.964;2023-08-30T07:55:11;16.87;;;11.50;;
18176;SDS011;9213;50.858;3.964;2023-08-30T07:57:38;14.93;;;11.50;;
18176;SDS011;9213;50.858;3.964;2023-08-30T08:00:06;11.83;;;10.53;;
18176;SDS011;9213;50.858;3.964;2023-08-30T08:02:35;13.47;;;10.63;;
18176;SDS011;9213;50.858;3.964;2023-08-30T08:05:02;12.07;;;9.87;;
18176;SDS011;9213;50.858;3.964;2023-08-30T08:07:29;13.10;;;10.07;;
18176;SDS011;9213;50.858;3.964;2023-08-30T08:09:56;12.57;;;10.07;;
18176;SDS011;9213;50.858;3.964;2023-08-30T08:12:23;11.77;;;10.53;;
18176;SDS011;9213;50.858;3.964;2023-08-30T08:14:51;11.30;;;9.93;;
18176;SDS011;9213;50.858;3.964;2023-08-30T08:17:18;10.40;;;9.40;;
18176;SDS011;9213;50.858;3.964;2023-08-30T08:19:46;10.50;;;8.77;;
18176;SDS011;9213;50.858;3.964;2023-08-30T08:22:13;10.50;;;8.47;;
18176;SDS011;9213;50.858;3.964;2023-08-30T08:24:40;10.50;;;9.20;;
18176;SDS011;9213;50.858;3.964;2023-08-30T08:27:08;11.73;;;10.03;;
18176;SDS011;9213;50.858;3.964;2023-08-30T08:29:36;11.07;;;9.63;;
18176;SDS011;9213;50.858;3.964;2023-08-30T08:32:03;14.37;;;11.23;;
18176;SDS011;9213;50.858;3.964;2023-08-30T08:34:30;13.57;;;11.60;;
18176;SDS011;9213;50.858;3.964;2023-08-30T08:36:58;14.23;;;11.13;;
18176;SDS011;9213;50.858;3.964;2023-08-30T08:39:25;12.97;;;11.60;;
18176;SDS011;9213;50.858;3.964;2023-08-30T08:41:52;14.20;;;12.33;;
18176;SDS011;9213;50.858;3.964;2023-08-30T08:44:20;13.83;;;11.60;;
18176;SDS011;9213;50.858;3.964;2023-08-30T08:46:48;13.00;;;11.50;;
18176;SDS011;9213;50.858;3.964;2023-08-30T08:49:17;13.80;;;12.23;;
18176;SDS011;9213;50.858;3.964;2023-08-30T08:51:45;12.87;;;11.33;;
18176;SDS011;9213;50.858;3.964;2023-08-30T08:54:13;14.27;;;11.73;;
18176;SDS011;9213;50.858;3.964;2023-08-30T08:56:41;13.10;;;10.60;;
18176;SDS011;9213;50.858;3.964;2023-08-30T08:59:09;12.03;;;10.73;;
18176;SDS011;9213;50.858;3.964;2023-08-30T09:01:36;11.40;;;10.23;;
18176;SDS011;9213;50.858;3.964;2023-08-30T09:04:05;11.83;;;10.43;;
18176;SDS011;9213;50.858;3.964;2023-08-30T09:06:33;13.27;;;11.30;;
18176;SDS011;9213;50.858;3.964;2023-08-30T09:09:00;11.23;;;9.73;;
18176;SDS011;9213;50.858;3.964;2023-08-30T09:11:30;10.07;;;9.10;;
18176;SDS011;9213;50.858;3.964;2023-08-30T09:13:57;12.83;;;9.00;;
18176;SDS011;9213;50.858;3.964;2023-08-30T09:16:24;8.97;;;8.07;;
18176;SDS011;9213;50.858;3.964;2023-08-30T09:18:57;9.97;;;8.07;;
18176;SDS011;9213;50.858;3.964;2023-08-30T09:21:25;9.87;;;8.60;;
18176;SDS011;9213;50.858;3.964;2023-08-30T09:23:59;10.53;;;8.50;;
18176;SDS011;9213;50.858;3.964;2023-08-30T09:26:26;12.20;;;9.07;;
18176;SDS011;9213;50.858;3.964;2023-08-30T09:28:55;9.87;;;8.90;;
18176;SDS011;9213;50.858;3.964;2023-08-30T09:31:32;9.73;;;8.83;;
18176;SDS011;9213;50.858;3.964;2023-08-30T09:33:59;14.10;;;9.40;;
18176;SDS011;9213;50.858;3.964;2023-08-30T09:36:26;10.33;;;8.33;;
18176;SDS011;9213;50.858;3.964;2023-08-30T09:38:59;9.33;;;8.43;;
18176;SDS011;9213;50.858;3.964;2023-08-30T09:41:29;8.27;;;7.43;;
18176;SDS011;9213;50.858;3.964;2023-08-30T09:43:59;10.47;;;7.20;;
18176;SDS011;9213;50.858;3.964;2023-08-30T09:46:26;8.77;;;7.03;;
18176;SDS011;9213;50.858;3.964;2023-08-30T09:48:54;7.83;;;7.03;;
18176;SDS011;9213;50.858;3.964;2023-08-30T09:51:22;8.00;;;6.33;;
18176;SDS011;9213;50.858;3.964;2023-08-30T09:53:52;7.70;;;6.43;;
18176;SDS011;9213;50.858;3.964;2023-08-30T09:56:24;11.40;;;6.70;;
18176;SDS011;9213;50.858;3.964;2023-08-30T09:58:53;9.93;;;6.63;;
18176;SDS011;9213;50.858;3.964;2023-08-30T10:01:22;6.57;;;5.87;;
18176;SDS011;9213;50.858;3.964;2023-08-30T10:03:49;6.50;;;5.87;;
18176;SDS011;9213;50.858;3.964;2023-08-30T10:06:17;8.07;;;6.63;;
18176;SDS011;9213;50.858;3.964;2023-08-30T10:08:46;7.37;;;5.37;;
18176;SDS011;9213;50.858;3.964;2023-08-30T10:11:17;8.15;;;5.03;;
18176;SDS011;9213;50.858;3.964;2023-08-30T10:13:44;7.97;;;4.40;;
18176;SDS011;9213;50.858;3.964;2023-08-30T10:16:19;5.23;;;4.20;;
18176;SDS011;9213;50.858;3.964;2023-08-30T10:18:50;7.28;;;3.88;;
18176;SDS011;9213;50.858;3.964;2023-08-30T10:21:19;6.73;;;3.80;;
18176;SDS011;9213;50.858;3.964;2023-08-30T10:23:47;5.65;;;3.08;;
18176;SDS011;9213;50.858;3.964;2023-08-30T10:26:20;5.63;;;3.17;;
18176;SDS011;9213;50.858;3.964;2023-08-30T10:28:49;9.90;;;3.03;;
18176;SDS011;9213;50.858;3.964;2023-08-30T10:31:18;7.10;;;2.88;;
18176;SDS011;9213;50.858;3.964;2023-08-30T10:33:49;8.02;;;3.30;;
18176;SDS011;9213;50.858;3.964;2023-08-30T10:36:21;5.75;;;2.92;;
18176;SDS011;9213;50.858;3.964;2023-08-30T10:38:49;5.33;;;2.73;;
18176;SDS011;9213;50.858;3.964;2023-08-30T10:41:20;5.43;;;2.70;;
18176;SDS011;9213;50.858;3.964;2023-08-30T10:43:51;7.85;;;3.00;;
18176;SDS011;9213;50.858;3.964;2023-08-30T10:46:28;5.18;;;2.70;;
18176;SDS011;9213;50.858;3.964;2023-08-30T10:49:07;5.55;;;2.55;;
18176;SDS011;9213;50.858;3.964;2023-08-30T10:51:36;8.85;;;3.35;;
18176;SDS011;9213;50.858;3.964;2023-08-30T10:54:10;8.57;;;2.88;;
18176;SDS011;9213;50.858;3.964;2023-08-30T10:56:47;6.13;;;2.80;;
18176;SDS011;9213;50.858;3.964;2023-08-30T10:59:18;6.63;;;2.40;;
18176;SDS011;9213;50.858;3.964;2023-08-30T11:01:47;8.88;;;2.65;;
18176;SDS011;9213;50.858;3.964;2023-08-30T11:04:17;5.90;;;2.40;;
18176;SDS011;9213;50.858;3.964;2023-08-30T11:06:45;6.97;;;2.50;;
18176;SDS011;9213;50.858;3.964;2023-08-30T11:09:13;7.40;;;2.63;;
18176;SDS011;9213;50.858;3.964;2023-08-30T11:11:43;8.68;;;2.35;;
18176;SDS011;9213;50.858;3.964;2023-08-30T11:14:10;11.30;;;2.55;;
18176;SDS011;9213;50.858;3.964;2023-08-30T11:16:37;11.73;;;2.85;;
18176;SDS011;9213;50.858;3.964;2023-08-30T11:19:05;8.07;;;2.60;;
18176;SDS011;9213;50.858;3.964;2023-08-30T11:21:36;8.15;;;2.50;;
18176;SDS011;9213;50.858;3.964;2023-08-30T11:24:05;10.80;;;2.78;;
18176;SDS011;9213;50.858;3.964;2023-08-30T11:26:33;3.85;;;2.20;;
18176;SDS011;9213;50.858;3.964;2023-08-30T11:29:03;4.70;;;1.85;;
18176;SDS011;9213;50.858;3.964;2023-08-30T11:31:31;8.95;;;2.80;;
18176;SDS011;9213;50.858;3.964;2023-08-30T11:33:58;6.10;;;2.90;;
18176;SDS011;9213;50.858;3.964;2023-08-30T11:36:27;5.75;;;2.40;;
18176;SDS011;9213;50.858;3.964;2023-08-30T11:38:56;9.00;;;2.65;;
18176;SDS011;9213;50.858;3.964;2023-08-30T11:41:24;9.05;;;2.67;;
18176;SDS011;9213;50.858;3.964;2023-08-30T11:43:52;4.97;;;2.35;;
18176;SDS011;9213;50.858;3.964;2023-08-30T11:46:20;5.60;;;1.92;;
18176;SDS011;9213;50.858;3.964;2023-08-30T11:48:48;5.88;;;2.55;;
18176;SDS011;9213;50.858;3.964;2023-08-30T11:51:16;6.40;;;2.00;;
18176;SDS011;9213;50.858;3.964;2023-08-30T11:53:45;4.32;;;1.83;;
18176;SDS011;9213;50.858;3.964;2023-08-30T11:56:14;6.57;;;1.92;;
18176;SDS011;9213;50.858;3.964;2023-08-30T11:58:42;6.28;;;1.90;;
18176;SDS011;9213;50.858;3.964;2023-08-30T12:01:09;6.05;;;1.95;;
18176;SDS011;9213;50.858;3.964;2023-08-30T12:03:37;6.00;;;2.42;;
18176;SDS011;9213;50.858;3.964;2023-08-30T12:06:08;4.43;;;1.92;;
18176;SDS011;9213;50.858;3.964;2023-08-30T12:08:36;4.95;;;1.77;;
18176;SDS011;9213;50.858;3.964;2023-08-30T12:11:03;3.83;;;2.00;;
18176;SDS011;9213;50.858;3.964;2023-08-30T12:13:32;8.13;;;2.35;;
18176;SDS011;9213;50.858;3.964;2023-08-30T12:16:00;5.63;;;1.67;;
18176;SDS011;9213;50.858;3.964;2023-08-30T12:18:28;4.47;;;1.48;;
18176;SDS011;9213;50.858;3.964;2023-08-30T12:21:00;5.53;;;1.70;;
18176;SDS011;9213;50.858;3.964;2023-08-30T12:23:28;7.80;;;2.03;;
18176;SDS011;9213;50.858;3.964;2023-08-30T12:25:56;6.03;;;1.70;;
18176;SDS011;9213;50.858;3.964;2023-08-30T12:28:24;7.63;;;2.03;;
18176;SDS011;9213;50.858;3.964;2023-08-30T12:30:53;5.38;;;1.67;;
18176;SDS011;9213;50.858;3.964;2023-08-30T12:33:20;5.38;;;2.10;;
18176;SDS011;9213;50.858;3.964;2023-08-30T12:35:47;6.22;;;1.75;;
18176;SDS011;9213;50.858;3.964;2023-08-30T12:38:14;10.15;;;1.90;;
18176;SDS011;9213;50.858;3.964;2023-08-30T12:40:44;5.55;;;2.25;;
18176;SDS011;9213;50.858;3.964;2023-08-30T12:43:11;7.22;;;2.28;;
18176;SDS011;9213;50.858;3.964;2023-08-30T12:45:38;5.43;;;1.92;;
18176;SDS011;9213;50.858;3.964;2023-08-30T12:48:07;3.22;;;1.45;;
18176;SDS011;9213;50.858;3.964;2023-08-30T12:50:35;5.30;;;1.60;;
18176;SDS011;9213;50.858;3.964;2023-08-30T12:53:02;3.35;;;1.60;;
18176;SDS011;9213;50.858;3.964;2023-08-30T12:55:29;3.97;;;2.03;;
18176;SDS011;9213;50.858;3.964;2023-08-30T12:57:56;6.20;;;1.88;;
18176;SDS011;9213;50.858;3.964;2023-08-30T13:00:23;4.00;;;1.90;;
18176;SDS011;9213;50.858;3.964;2023-08-30T13:02:51;4.65;;;1.77;;
18176;SDS011;9213;50.858;3.964;2023-08-30T13:05:19;5.53;;;1.65;;
18176;SDS011;9213;50.858;3.964;2023-08-30T13:07:47;4.95;;;1.60;;
18176;SDS011;9213;50.858;3.964;2023-08-30T13:10:14;4.57;;;1.52;;
18176;SDS011;9213;50.858;3.964;2023-08-30T13:12:42;4.63;;;2.22;;
18176;SDS011;9213;50.858;3.964;2023-08-30T13:15:09;3.85;;;1.70;;
18176;SDS011;9213;50.858;3.964;2023-08-30T13:17:36;3.67;;;1.75;;
18176;SDS011;9213;50.858;3.964;2023-08-30T13:20:03;3.42;;;1.95;;
18176;SDS011;9213;50.858;3.964;2023-08-30T13:22:32;6.07;;;1.80;;
18176;SDS011;9213;50.858;3.964;2023-08-30T13:24:59;6.15;;;1.88;;
18176;SDS011;9213;50.858;3.964;2023-08-30T13:27:26;4.82;;;1.67;;
18176;SDS011;9213;50.858;3.964;2023-08-30T13:29:53;5.60;;;1.92;;
18176;SDS011;9213;50.858;3.964;2023-08-30T13:32:20;3.13;;;1.90;;
18176;SDS011;9213;50.858;3.964;2023-08-30T13:34:47;7.60;;;1.70;;
18176;SDS011;9213;50.858;3.964;2023-08-30T13:37:14;3.53;;;1.80;;
18176;SDS011;9213;50.858;3.964;2023-08-30T13:39:42;4.80;;;2.00;;
18176;SDS011;9213;50.858;3.964;2023-08-30T13:42:09;3.58;;;1.52;;
18176;SDS011;9213;50.858;3.964;2023-08-30T13:44:36;3.35;;;1.55;;
18176;SDS011;9213;50.858;3.964;2023-08-30T13:47:03;3.08;;;1.52;;
18176;SDS011;9213;50.858;3.964;2023-08-30T13:49:30;2.92;;;1.80;;
18176;SDS011;9213;50.858;3.964;2023-08-30T13:51:57;6.13;;;1.80;;
18176;SDS011;9213;50.858;3.964;2023-08-30T13:54:25;4.10;;;1.70;;
18176;SDS011;9213;50.858;3.964;2023-08-30T13:56:56;3.70;;;1.60;;
18176;SDS011;9213;50.858;3.964;2023-08-30T13:59:23;5.38;;;2.03;;
18176;SDS011;9213;50.858;3.964;2023-08-30T14:01:50;3.70;;;1.90;;
18176;SDS011;9213;50.858;3.964;2023-08-30T14:04:17;2.90;;;1.40;;
18176;SDS011;9213;50.858;3.964;2023-08-30T14:06:44;3.83;;;1.25;;
18176;SDS011;9213;50.858;3.964;2023-08-30T14:09:11;3.03;;;1.23;;
18176;SDS011;9213;50.858;3.964;2023-08-30T14:11:38;3.97;;;1.20;;
18176;SDS011;9213;50.858;3.964;2023-08-30T14:14:08;2.38;;;1.20;;
18176;SDS011;9213;50.858;3.964;2023-08-30T14:16:36;5.97;;;1.42;;
18176;SDS011;9213;50.858;3.964;2023-08-30T14:19:03;6.35;;;1.50;;
18176;SDS011;9213;50.858;3.964;2023-08-30T14:21:30;4.03;;;1.40;;
18176;SDS011;9213;50.858;3.964;2023-08-30T14:23:57;5.25;;;1.38;;
18176;SDS011;9213;50.858;3.964;2023-08-30T14:26:25;3.67;;;1.35;;
18176;SDS011;9213;50.858;3.964;2023-08-30T14:28:52;3.80;;;1.20;;
18176;SDS011;9213;50.858;3.964;2023-08-30T14:31:20;4.53;;;1.20;;
18176;SDS011;9213;50.858;3.964;2023-08-30T14:33:47;4.25;;;1.15;;
18176;SDS011;9213;50.858;3.964;2023-08-30T14:36:14;3.42;;;1.40;;
18176;SDS011;9213;50.858;3.964;2023-08-30T14:38:41;1.48;;;1.10;;
18176;SDS011;9213;50.858;3.964;2023-08-30T14:41:08;3.10;;;1.38;;
18176;SDS011;9213;50.858;3.964;2023-08-30T14:43:35;3.22;;;1.30;;
18176;SDS011;9213;50.858;3.964;2023-08-30T14:46:03;3.72;;;1.30;;
18176;SDS011;9213;50.858;3.964;2023-08-30T14:48:32;3.45;;;1.20;;
18176;SDS011;9213;50.858;3.964;2023-08-30T14:51:00;5.55;;;1.77;;
18176;SDS011;9213;50.858;3.964;2023-08-30T14:53:27;4.95;;;1.50;;
18176;SDS011;9213;50.858;3.964;2023-08-30T14:55:54;4.10;;;1.08;;
18176;SDS011;9213;50.858;3.964;2023-08-30T14:58:21;4.38;;;1.27;;